createdAt,value
2018-10-18T00:00:08.102Z,98220.68
2018-10-18T00:02:36.612Z,98222.32
2018-10-18T00:05:06.001Z,98219.20
2018-10-18T00:07:34.174Z,98215.84
2018-10-18T00:10:02.492Z,98219.83
2018-10-18T00:12:31.022Z,98224.31
2018-10-18T00:14:59.299Z,98222.67
2018-10-18T00:17:33.084Z,98221.50
2018-10-18T00:20:01.387Z,98222.26
2018-10-18T00:22:29.457Z,98214.83
2018-10-18T00:24:57.622Z,98221.42
2018-10-18T00:27:25.889Z,98226.59
2018-10-18T00:29:54.068Z,98220.20
2018-10-18T00:32:22.259Z,98219.08
2018-10-18T00:34:50.524Z,98225.36
2018-10-18T00:37:18.796Z,98221.92
2018-10-18T00:39:47.036Z,98222.17
2018-10-18T00:42:15.526Z,98220.95
2018-10-18T00:44:43.688Z,98220.22
2018-10-18T00:47:11.859Z,98225.97
2018-10-18T00:49:40.080Z,98221.90
2018-10-18T00:52:08.384Z,98227.51
2018-10-18T00:54:36.642Z,98219.96
2018-10-18T00:57:04.816Z,98221.19
2018-10-18T00:59:32.992Z,98219.50
2018-10-18T01:02:02.123Z,98219.52
2018-10-18T01:04:30.220Z,98217.45
2018-10-18T01:06:58.433Z,98215.77
2018-10-18T01:09:26.618Z,98219.94
2018-10-18T01:11:54.935Z,98220.44
2018-10-18T01:14:23.045Z,98214.66
2018-10-18T01:16:55.377Z,98219.14
2018-10-18T01:19:23.590Z,98217.48
2018-10-18T01:21:51.770Z,98222.70
2018-10-18T01:24:20.193Z,98217.17
2018-10-18T01:26:48.392Z,98214.01
2018-10-18T01:29:16.561Z,98219.17
2018-10-18T01:31:44.937Z,98211.55
2018-10-18T01:34:13.453Z,98217.73
2018-10-18T01:36:41.614Z,98216.32
2018-10-18T01:39:10.169Z,98214.17
2018-10-18T01:41:38.862Z,98215.83
2018-10-18T01:44:07.058Z,98212.11
2018-10-18T01:46:35.208Z,98209.95
2018-10-18T01:49:03.474Z,98202.21
2018-10-18T01:51:31.652Z,98203.69
2018-10-18T01:53:59.916Z,98195.33
2018-10-18T01:56:28.046Z,98199.32
2018-10-18T01:58:56.214Z,98200.18
2018-10-18T02:01:24.390Z,98205.77
2018-10-18T02:03:52.666Z,98204.17
2018-10-18T02:06:20.868Z,98210.44
2018-10-18T02:08:49.134Z,98211.55
2018-10-18T02:11:17.317Z,98204.55
2018-10-18T02:13:45.640Z,98209.64
2018-10-18T02:16:13.767Z,98203.80
2018-10-18T02:18:42.841Z,98206.14
2018-10-18T02:21:11.008Z,98207.24
2018-10-18T02:23:39.213Z,98212.70
2018-10-18T02:26:07.413Z,98205.77
2018-10-18T02:28:35.581Z,98204.05
2018-10-18T02:31:03.839Z,98213.12
2018-10-18T02:33:32.001Z,98196.43
2018-10-18T02:36:00.310Z,98204.23
2018-10-18T02:38:28.446Z,98201.77
2018-10-18T02:40:56.705Z,98205.27
2018-10-18T02:43:24.898Z,98192.63
2018-10-18T02:45:53.086Z,98191.83
2018-10-18T02:48:21.269Z,98193.11
2018-10-18T02:50:49.451Z,98192.52
2018-10-18T02:53:17.615Z,98193.41
2018-10-18T02:55:45.774Z,98195.69
2018-10-18T02:58:13.934Z,98199.09
2018-10-18T03:00:42.137Z,98199.61
2018-10-18T03:03:10.306Z,98199.24
2018-10-18T03:05:38.560Z,98196.70
2018-10-18T03:08:06.783Z,98191.23
2018-10-18T03:10:41.688Z,98197.56
2018-10-18T03:13:09.864Z,98198.55
2018-10-18T03:15:38.328Z,98195.52
2018-10-18T03:18:06.828Z,98199.39
2018-10-18T03:20:34.976Z,98196.80
2018-10-18T03:23:03.345Z,98196.13
2018-10-18T03:25:31.504Z,98199.50
2018-10-18T03:27:59.718Z,98199.30
2018-10-18T03:30:27.884Z,98201.28
2018-10-18T03:32:56.058Z,98207.30
2018-10-18T03:35:24.226Z,98205.61
2018-10-18T03:37:52.410Z,98208.20
2018-10-18T03:40:20.580Z,98203.33
2018-10-18T03:42:48.773Z,98205.50
2018-10-18T03:45:16.987Z,98206.79
2018-10-18T03:47:45.253Z,98205.34
2018-10-18T03:50:13.488Z,98214.20
2018-10-18T03:52:41.681Z,98207.06
2018-10-18T03:55:09.849Z,98206.71
2018-10-18T03:57:38.031Z,98208.11
2018-10-18T04:00:06.961Z,98202.91
2018-10-18T04:02:35.168Z,98206.83
2018-10-18T04:05:03.357Z,98204.78
2018-10-18T04:07:31.559Z,98207.03
2018-10-18T04:09:59.730Z,98202.23
2018-10-18T04:12:27.983Z,98204.98
2018-10-18T04:14:56.245Z,98197.73
2018-10-18T04:17:24.566Z,98188.30
2018-10-18T04:19:52.957Z,98195.28
2018-10-18T04:22:21.148Z,98198.44
2018-10-18T04:24:49.361Z,98201.03
2018-10-18T04:27:17.978Z,98201.23
2018-10-18T04:29:46.142Z,98198.23
2018-10-18T04:32:14.401Z,98196.69
2018-10-18T04:34:42.668Z,98195.39
2018-10-18T04:37:10.850Z,98196.28
2018-10-18T04:39:39.093Z,98201.69
2018-10-18T04:42:07.440Z,98202.23
2018-10-18T04:44:35.553Z,98204.38
2018-10-18T04:47:03.807Z,98209.58
2018-10-18T04:49:31.965Z,98207.02
2018-10-18T04:52:00.145Z,98215.47
2018-10-18T04:54:28.370Z,98216.28
2018-10-18T04:56:56.633Z,98221.17
2018-10-18T04:59:25.030Z,98219.02
2018-10-18T05:01:53.200Z,98220.38
2018-10-18T05:04:21.518Z,98218.73
2018-10-18T05:06:49.714Z,98216.58
2018-10-18T05:09:17.907Z,98214.98
2018-10-18T05:11:46.084Z,98219.02
2018-10-18T05:14:14.253Z,98220.97
2018-10-18T05:16:42.422Z,98226.66
2018-10-18T05:19:10.737Z,98232.95
2018-10-18T05:21:38.816Z,98236.45
2018-10-18T05:24:07.191Z,98240.30
2018-10-18T05:26:35.411Z,98235.46
2018-10-18T05:29:03.608Z,98232.77
2018-10-18T05:31:31.912Z,98239.15
2018-10-18T05:34:00.305Z,98240.16
2018-10-18T05:36:28.553Z,98233.66
2018-10-18T05:38:56.758Z,98243.36
2018-10-18T05:41:24.973Z,98245.95
2018-10-18T05:43:53.180Z,98251.27
2018-10-18T05:46:21.401Z,98255.56
2018-10-18T05:48:49.621Z,98266.01
2018-10-18T05:51:17.795Z,98266.16
2018-10-18T05:53:46.036Z,98266.47
2018-10-18T05:56:14.289Z,98264.02
2018-10-18T05:58:42.526Z,98268.05
2018-10-18T06:01:11.413Z,98270.75
2018-10-18T06:03:39.601Z,98275.91
2018-10-18T06:06:07.869Z,98278.05
2018-10-18T06:08:36.089Z,98287.45
2018-10-18T06:11:15.676Z,98284.15
2018-10-18T06:13:43.956Z,98287.80
2018-10-18T06:16:12.180Z,98287.70
2018-10-18T06:18:40.396Z,98287.88
2018-10-18T06:21:08.634Z,98291.21
2018-10-18T06:23:36.842Z,98291.66
2018-10-18T06:26:05.288Z,98296.96
2018-10-18T06:28:33.500Z,98295.45
2018-10-18T06:31:01.922Z,98297.07
2018-10-18T06:33:30.118Z,98300.51
2018-10-18T06:35:58.354Z,98295.97
2018-10-18T06:38:26.568Z,98302.66
2018-10-18T06:40:54.849Z,98302.47
2018-10-18T06:43:23.046Z,98301.55
2018-10-18T06:45:51.391Z,98301.58
2018-10-18T06:48:19.630Z,98304.20
2018-10-18T06:50:47.930Z,98301.44
2018-10-18T06:53:16.149Z,98306.56
2018-10-18T06:55:44.901Z,98310.87
2018-10-18T06:58:13.777Z,98306.91
2018-10-18T07:00:42.173Z,98306.94
2018-10-18T07:03:10.424Z,98300.00
2018-10-18T07:05:38.655Z,98300.11
2018-10-18T07:08:06.874Z,98298.30
2018-10-18T07:10:35.163Z,98297.71
2018-10-18T07:13:03.398Z,98293.52
2018-10-18T07:15:32.689Z,98299.75
2018-10-18T07:18:01.030Z,98300.80
2018-10-18T07:20:29.248Z,98303.38
2018-10-18T07:22:57.551Z,98305.42
2018-10-18T07:25:25.908Z,98302.13
2018-10-18T07:27:54.038Z,98306.98
2018-10-18T07:30:22.282Z,98303.98
2018-10-18T07:32:50.506Z,98304.77
2018-10-18T07:35:18.824Z,98306.95
2018-10-18T07:37:47.104Z,98313.83
2018-10-18T07:40:16.677Z,98311.71
2018-10-18T07:42:45.285Z,98304.84
2018-10-18T07:45:14.349Z,98309.60
2018-10-18T07:47:43.281Z,98313.77
2018-10-18T07:50:11.929Z,98308.87
2018-10-18T07:52:40.157Z,98314.33
2018-10-18T07:55:09.295Z,98311.33
2018-10-18T07:57:37.529Z,98313.47
2018-10-18T08:00:08.666Z,98318.72
2018-10-18T08:02:37.356Z,98313.61
2018-10-18T08:05:06.485Z,98312.07
2018-10-18T08:07:34.983Z,98316.98
2018-10-18T08:10:03.375Z,98315.32
2018-10-18T08:12:31.637Z,98316.02
2018-10-18T08:14:59.890Z,98314.50
2018-10-18T08:17:28.192Z,98315.20
2018-10-18T08:19:56.343Z,98308.25
2018-10-18T08:22:24.561Z,98308.13
2018-10-18T08:24:52.796Z,98308.25
2018-10-18T08:27:20.968Z,98305.46
2018-10-18T08:29:49.226Z,98312.96
2018-10-18T08:32:17.556Z,98310.48
2018-10-18T08:34:45.772Z,98310.81
2018-10-18T08:37:14.188Z,98308.52
2018-10-18T08:39:42.210Z,98306.61
2018-10-18T08:42:10.556Z,98313.73
2018-10-18T08:44:38.774Z,98310.80
2018-10-18T08:47:06.989Z,98316.05
2018-10-18T08:49:35.188Z,98307.17
2018-10-18T08:52:03.509Z,98304.91
2018-10-18T08:54:31.804Z,98310.50
2018-10-18T08:56:59.998Z,98310.86
2018-10-18T08:59:28.226Z,98309.02
2018-10-18T09:01:56.600Z,98310.64
2018-10-18T09:04:24.889Z,98302.09
2018-10-18T09:06:53.194Z,98300.47
2018-10-18T09:09:21.737Z,98297.77
2018-10-18T09:11:49.943Z,98301.69
2018-10-18T09:14:18.185Z,98293.50
2018-10-18T09:16:46.417Z,98295.73
2018-10-18T09:19:14.720Z,98295.77
2018-10-18T09:21:42.916Z,98296.50
2018-10-18T09:24:11.164Z,98290.61
2018-10-18T09:26:39.375Z,98288.27
2018-10-18T09:29:07.662Z,98292.92
2018-10-18T09:31:35.917Z,98287.75
2018-10-18T09:34:04.207Z,98287.30
2018-10-18T09:36:32.672Z,98283.30
2018-10-18T09:39:00.944Z,98283.83
2018-10-18T09:41:29.170Z,98281.02
2018-10-18T09:43:58.329Z,98278.53
2018-10-18T09:46:26.891Z,98281.62
2018-10-18T09:48:55.222Z,98284.45
2018-10-18T09:51:23.493Z,98281.37
2018-10-18T09:53:51.729Z,98278.63
2018-10-18T09:56:20.253Z,98272.84
2018-10-18T09:58:48.493Z,98268.70
2018-10-18T10:01:22.205Z,98274.44
2018-10-18T10:03:50.697Z,98273.64
2018-10-18T10:06:18.975Z,98270.66
2018-10-18T10:08:47.210Z,98275.10
2018-10-18T10:11:16.225Z,98266.86
2018-10-18T10:13:44.538Z,98263.11
2018-10-18T10:16:12.849Z,98259.87
2018-10-18T10:18:41.996Z,98253.05
2018-10-18T10:21:10.199Z,98247.59
2018-10-18T10:23:38.411Z,98248.55
2018-10-18T10:26:06.649Z,98247.73
2018-10-18T10:28:34.855Z,98249.77
2018-10-18T10:31:03.232Z,98252.14
2018-10-18T10:33:31.471Z,98249.25
2018-10-18T10:35:59.603Z,98239.77
2018-10-18T10:38:28.186Z,98238.02
2018-10-18T10:40:56.813Z,98227.88
2018-10-18T10:43:24.974Z,98227.75
2018-10-18T10:45:53.372Z,98220.98
2018-10-18T10:48:21.520Z,98225.19
2018-10-18T10:50:49.735Z,98222.39
2018-10-18T10:53:17.941Z,98219.70
2018-10-18T10:55:46.211Z,98213.62
2018-10-18T10:58:14.541Z,98215.77
2018-10-18T11:01:20.648Z,98211.09
2018-10-18T11:03:50.048Z,98210.33
2018-10-18T11:06:18.402Z,98201.02
2018-10-18T11:08:46.715Z,98196.42
2018-10-18T11:11:15.759Z,98189.91
2018-10-18T11:13:44.022Z,98186.69
2018-10-18T11:16:12.298Z,98184.94
2018-10-18T11:18:41.590Z,98189.79
2018-10-18T11:21:11.286Z,98189.47
2018-10-18T11:23:39.461Z,98185.59
2018-10-18T11:26:08.196Z,98183.54
2018-10-18T11:28:36.371Z,98176.65
2018-10-18T11:31:05.211Z,98175.20
2018-10-18T11:33:33.457Z,98182.23
2018-10-18T11:36:02.250Z,98175.48
2018-10-18T11:38:30.465Z,98178.44
2018-10-18T11:40:59.021Z,98172.64
2018-10-18T11:43:27.295Z,98178.99
2018-10-18T11:45:55.574Z,98178.57
2018-10-18T11:48:23.795Z,98177.44
2018-10-18T11:50:52.022Z,98173.92
2018-10-18T11:53:20.313Z,98168.62
2018-10-18T11:55:48.556Z,98168.81
2018-10-18T11:58:17.260Z,98169.11
2018-10-18T12:00:45.494Z,98168.76
2018-10-18T12:03:14.130Z,98160.61
2018-10-18T12:05:42.504Z,98159.02
2018-10-18T12:08:10.868Z,98154.78
2018-10-18T12:10:39.017Z,98159.66
2018-10-18T12:13:07.327Z,98160.78
2018-10-18T12:15:35.617Z,98159.25
2018-10-18T12:18:03.828Z,98149.52
2018-10-18T12:20:32.045Z,98150.73
2018-10-18T12:23:00.341Z,98147.83
2018-10-18T12:25:28.612Z,98142.47
2018-10-18T12:27:56.809Z,98137.56
2018-10-18T12:30:25.103Z,98131.50
2018-10-18T12:32:53.348Z,98126.02
2018-10-18T12:35:21.611Z,98126.66
2018-10-18T12:37:49.843Z,98133.26
2018-10-18T12:40:18.206Z,98131.11
2018-10-18T12:42:47.814Z,98126.52
2018-10-18T12:45:16.030Z,98123.69
2018-10-18T12:47:44.356Z,98129.78
2018-10-18T12:50:12.946Z,98120.80
2018-10-18T12:52:41.130Z,98120.38
2018-10-18T12:55:09.400Z,98124.27
2018-10-18T12:57:37.646Z,98127.08
2018-10-18T13:00:07.629Z,98114.64
2018-10-18T13:02:36.099Z,98106.22
2018-10-18T13:05:05.394Z,98105.59
2018-10-18T13:07:33.633Z,98108.66
2018-10-18T13:10:01.885Z,98109.38
2018-10-18T13:12:30.326Z,98105.77
2018-10-18T13:14:58.487Z,98100.45
2018-10-18T13:17:27.031Z,98101.23
2018-10-18T13:19:55.338Z,98103.59
2018-10-18T13:22:23.590Z,98102.02
2018-10-18T13:24:51.917Z,98106.91
2018-10-18T13:27:20.130Z,98101.95
2018-10-18T13:29:48.457Z,98099.36
2018-10-18T13:32:16.967Z,98099.23
2018-10-18T13:34:45.320Z,98098.27
2018-10-18T13:37:13.565Z,98099.30
2018-10-18T13:39:41.783Z,98103.31
2018-10-18T13:42:10.118Z,98093.63
2018-10-18T13:44:38.321Z,98101.16
2018-10-18T13:47:06.653Z,98110.52
2018-10-18T13:49:34.859Z,98103.87
2018-10-18T13:52:03.106Z,98101.42
2018-10-18T13:54:31.411Z,98111.48
2018-10-18T13:56:59.614Z,98108.34
2018-10-18T13:59:39.370Z,98107.75
2018-10-18T14:02:07.624Z,98102.83
2018-10-18T14:04:35.804Z,98104.05
2018-10-18T14:07:04.150Z,98107.23
2018-10-18T14:09:32.366Z,98099.02
2018-10-18T14:12:00.609Z,98106.85
2018-10-18T14:14:28.832Z,98116.20
2018-10-18T14:16:57.171Z,98110.69
2018-10-18T14:19:25.409Z,98106.99
2018-10-18T14:21:53.726Z,98102.26
2018-10-18T14:24:22.460Z,98101.95
2018-10-18T14:26:50.751Z,98097.94
2018-10-18T14:29:19.117Z,98100.33
2018-10-18T14:31:47.294Z,98097.94
2018-10-18T14:34:15.569Z,98098.96
2018-10-18T14:36:43.799Z,98099.37
2018-10-18T14:39:12.138Z,98103.09
2018-10-18T14:41:40.443Z,98109.67
2018-10-18T14:44:08.702Z,98102.13
2018-10-18T14:46:37.005Z,98107.47
2018-10-18T14:49:06.405Z,98105.45
2018-10-18T14:51:34.909Z,98107.33
2018-10-18T14:54:03.365Z,98105.86
2018-10-18T14:56:31.599Z,98107.78
2018-10-18T14:59:00.165Z,98106.13
2018-10-18T15:01:28.357Z,98109.06
2018-10-18T15:03:56.625Z,98104.87
2018-10-18T15:06:24.958Z,98106.38
2018-10-18T15:08:53.198Z,98109.27
2018-10-18T15:11:21.437Z,98104.42
2018-10-18T15:13:49.808Z,98109.13
2018-10-18T15:16:18.162Z,98109.63
2018-10-18T15:18:46.398Z,98111.20
2018-10-18T15:21:14.679Z,98116.49
2018-10-18T15:23:42.941Z,98117.91
2018-10-18T15:26:11.844Z,98117.72
2018-10-18T15:28:40.203Z,98119.13
2018-10-18T15:31:08.496Z,98117.88
2018-10-18T15:33:36.762Z,98117.83
2018-10-18T15:36:05.370Z,98119.52
2018-10-18T15:38:33.694Z,98119.22
2018-10-18T15:41:01.859Z,98122.62
2018-10-18T15:43:30.120Z,98122.45
2018-10-18T15:45:58.354Z,98125.27
2018-10-18T15:48:26.713Z,98125.61
2018-10-18T15:50:55.086Z,98120.49
2018-10-18T15:53:23.272Z,98126.81
2018-10-18T15:55:51.577Z,98123.81
2018-10-18T15:58:19.941Z,98127.70
2018-10-18T16:00:48.941Z,98126.54
2018-10-18T16:03:17.279Z,98128.38
2018-10-18T16:05:45.501Z,98136.69
2018-10-18T16:08:13.749Z,98137.31
2018-10-18T16:10:42.096Z,98135.02
2018-10-18T16:13:10.969Z,98138.46
2018-10-18T16:15:39.170Z,98142.13
2018-10-18T16:18:07.499Z,98146.02
2018-10-18T16:20:35.750Z,98150.09
2018-10-18T16:23:04.089Z,98155.73
2018-10-18T16:25:32.334Z,98162.52
2018-10-18T16:28:00.622Z,98163.58
2018-10-18T16:30:28.922Z,98164.02
2018-10-18T16:32:57.454Z,98171.55
2018-10-18T16:35:26.378Z,98178.89
2018-10-18T16:37:55.508Z,98180.06
2018-10-18T16:40:23.912Z,98183.02
2018-10-18T16:42:52.198Z,98184.52
2018-10-18T16:45:20.401Z,98185.21
2018-10-18T16:47:48.735Z,98188.82
2018-10-18T16:50:23.637Z,98184.39
2018-10-18T16:52:51.921Z,98188.02
2018-10-18T16:55:20.923Z,98190.02
2018-10-18T16:57:49.235Z,98196.20
2018-10-18T17:00:18.073Z,98202.91
2018-10-18T17:02:46.686Z,98203.38
2018-10-18T17:05:14.915Z,98206.70
2018-10-18T17:07:43.220Z,98215.51
2018-10-18T17:10:11.535Z,98211.92
2018-10-18T17:12:39.715Z,98212.54
2018-10-18T17:15:08.244Z,98207.52
2018-10-18T17:17:36.575Z,98213.95
2018-10-18T17:20:05.281Z,98217.75
2018-10-18T17:22:33.488Z,98224.19
2018-10-18T17:25:02.012Z,98224.06
2018-10-18T17:27:30.415Z,98230.89
2018-10-18T17:29:58.512Z,98231.76
2018-10-18T17:32:26.786Z,98230.24
2018-10-18T17:34:54.954Z,98225.16
2018-10-18T17:37:23.184Z,98231.91
2018-10-18T17:39:51.457Z,98233.98
2018-10-18T17:42:19.839Z,98231.36
2018-10-18T17:44:47.981Z,98243.05
2018-10-18T17:47:16.332Z,98240.95
2018-10-18T17:49:44.558Z,98236.55
2018-10-18T17:52:13.116Z,98237.52
2018-10-18T17:54:41.410Z,98243.86
2018-10-18T17:57:09.656Z,98240.87
2018-10-18T17:59:37.988Z,98244.22
2018-10-18T18:02:06.377Z,98249.13
2018-10-18T18:04:35.411Z,98245.30
2018-10-18T18:07:03.656Z,98247.44
2018-10-18T18:09:32.500Z,98250.19
2018-10-18T18:12:00.758Z,98259.72
2018-10-18T18:14:29.685Z,98252.83
2018-10-18T18:16:57.971Z,98257.69
2018-10-18T18:19:26.413Z,98261.03
2018-10-18T18:21:54.677Z,98262.78
2018-10-18T18:24:22.937Z,98263.88
2018-10-18T18:26:51.201Z,98266.41
2018-10-18T18:29:19.465Z,98269.77
2018-10-18T18:31:47.645Z,98274.00
2018-10-18T18:34:15.859Z,98274.55
2018-10-18T18:36:44.097Z,98275.83
2018-10-18T18:39:12.389Z,98279.94
2018-10-18T18:41:40.609Z,98283.36
2018-10-18T18:44:08.886Z,98288.80
2018-10-18T18:46:37.130Z,98285.97
2018-10-18T18:49:05.959Z,98291.31
2018-10-18T18:51:34.271Z,98289.16
2018-10-18T18:54:02.488Z,98292.80
2018-10-18T18:56:30.746Z,98298.79
2018-10-18T18:58:59.212Z,98298.75
2018-10-18T19:01:27.555Z,98302.05
2018-10-18T19:03:55.790Z,98301.94
2018-10-18T19:06:23.989Z,98309.27
2018-10-18T19:08:52.171Z,98304.47
2018-10-18T19:11:20.439Z,98308.22
2018-10-18T19:13:51.694Z,98312.49
2018-10-18T19:16:19.925Z,98315.54
2018-10-18T19:18:48.126Z,98324.00
2018-10-18T19:21:16.499Z,98323.63
2018-10-18T19:23:45.682Z,98326.59
2018-10-18T19:26:13.981Z,98333.56
2018-10-18T19:28:42.164Z,98331.33
2018-10-18T19:31:10.400Z,98327.16
2018-10-18T19:33:38.676Z,98332.69
2018-10-18T19:36:06.875Z,98330.87
2018-10-18T19:38:35.234Z,98340.55
2018-10-18T19:41:03.449Z,98335.39
2018-10-18T19:43:31.684Z,98341.35
2018-10-18T19:45:59.910Z,98335.98
2018-10-18T19:48:28.402Z,98343.20
2018-10-18T19:50:56.856Z,98337.56
2018-10-18T19:53:25.071Z,98346.46
2018-10-18T19:55:53.311Z,98353.30
2018-10-18T19:58:21.545Z,98349.81
2018-10-18T20:00:49.752Z,98354.20
2018-10-18T20:03:17.973Z,98349.94
2018-10-18T20:05:46.187Z,98354.50
2018-10-18T20:08:14.559Z,98349.70
2018-10-18T20:10:42.833Z,98356.16
2018-10-18T20:13:11.020Z,98359.70
2018-10-18T20:15:39.215Z,98357.31
2018-10-18T20:18:07.516Z,98356.94
2018-10-18T20:20:35.713Z,98369.04
2018-10-18T20:23:03.983Z,98363.16
2018-10-18T20:25:32.435Z,98361.81
2018-10-18T20:28:01.116Z,98368.28
2018-10-18T20:30:29.401Z,98374.22
2018-10-18T20:32:57.593Z,98371.41
2018-10-18T20:35:25.808Z,98379.24
2018-10-18T20:37:53.985Z,98380.93
2018-10-18T20:40:22.457Z,98384.24
2018-10-18T20:42:50.940Z,98377.95
2018-10-18T20:45:29.248Z,98379.56
2018-10-18T20:47:57.882Z,98391.21
2018-10-18T20:50:25.965Z,98385.30
2018-10-18T20:52:54.821Z,98392.36
2018-10-18T20:55:24.647Z,98395.23
2018-10-18T20:57:52.837Z,98388.28
2018-10-18T21:00:21.017Z,98395.34
2018-10-18T21:02:49.433Z,98400.83
2018-10-18T21:05:17.730Z,98402.94
2018-10-18T21:07:46.014Z,98398.16
2018-10-18T21:10:14.266Z,98396.98
2018-10-18T21:12:42.526Z,98400.20
2018-10-18T21:15:10.796Z,98398.31
2018-10-18T21:17:39.093Z,98400.98
2018-10-18T21:20:07.423Z,98405.85
2018-10-18T21:22:35.657Z,98405.66
2018-10-18T21:25:04.173Z,98404.30
2018-10-18T21:27:32.419Z,98401.83
2018-10-18T21:30:00.613Z,98398.89
2018-10-18T21:32:28.781Z,98402.80
2018-10-18T21:34:56.985Z,98406.40
2018-10-18T21:37:25.220Z,98401.53
2018-10-18T21:39:53.405Z,98401.59
2018-10-18T21:42:28.364Z,98404.33
2018-10-18T21:44:56.725Z,98407.01
2018-10-18T21:47:25.218Z,98398.24
2018-10-18T21:49:53.380Z,98404.55
2018-10-18T21:52:21.554Z,98412.71
2018-10-18T21:54:49.762Z,98404.55
2018-10-18T21:57:17.996Z,98412.30
2018-10-18T21:59:46.242Z,98416.69
2018-10-18T22:02:14.533Z,98412.59
2018-10-18T22:04:42.758Z,98411.94
2018-10-18T22:07:11.029Z,98415.45
2018-10-18T22:09:39.327Z,98412.48
2018-10-18T22:12:07.973Z,98410.48
2018-10-18T22:14:36.209Z,98413.91
2018-10-18T22:17:04.558Z,98404.73
2018-10-18T22:19:32.717Z,98407.48
2018-10-18T22:22:00.913Z,98405.77
2018-10-18T22:24:29.152Z,98406.02
2018-10-18T22:26:57.511Z,98410.39
2018-10-18T22:29:25.669Z,98421.61
2018-10-18T22:31:53.960Z,98421.93
2018-10-18T22:34:22.158Z,98424.30
2018-10-18T22:36:50.385Z,98420.36
2018-10-18T22:39:18.719Z,98418.66
2018-10-18T22:41:46.963Z,98422.84
2018-10-18T22:44:15.129Z,98417.73
2018-10-18T22:46:43.389Z,98418.16
2018-10-18T22:49:11.685Z,98412.11
2018-10-18T22:51:39.924Z,98408.97
2018-10-18T22:54:08.136Z,98410.47
2018-10-18T22:56:36.414Z,98415.13
2018-10-18T22:59:04.976Z,98409.89
2018-10-18T23:01:33.174Z,98412.02
2018-10-18T23:04:01.378Z,98413.38
2018-10-18T23:06:29.554Z,98411.09
2018-10-18T23:08:57.760Z,98409.39
2018-10-18T23:11:25.973Z,98408.59
2018-10-18T23:13:54.149Z,98408.81
2018-10-18T23:16:22.343Z,98413.75
2018-10-18T23:18:50.535Z,98413.09
2018-10-18T23:21:18.797Z,98414.20
2018-10-18T23:23:47.077Z,98413.95
2018-10-18T23:26:15.257Z,98409.85
2018-10-18T23:28:43.465Z,98407.77
2018-10-18T23:31:11.625Z,98407.28
2018-10-18T23:33:39.837Z,98401.86
2018-10-18T23:36:08.025Z,98407.14
2018-10-18T23:38:36.201Z,98409.40
2018-10-18T23:41:04.473Z,98400.09
2018-10-18T23:43:32.613Z,98410.98
2018-10-18T23:46:00.797Z,98406.23
2018-10-18T23:48:28.992Z,98405.94
2018-10-18T23:50:57.242Z,98403.66
2018-10-18T23:53:25.418Z,98401.81
2018-10-18T23:55:53.603Z,98409.75
2018-10-18T23:58:21.861Z,98408.09
